createdAt,value
2018-06-29T00:02:22.565Z,25.35
2018-06-29T00:04:50.705Z,25.43
2018-06-29T00:07:18.845Z,24.92
2018-06-29T00:09:46.997Z,24.10
2018-06-29T00:12:15.157Z,24.85
2018-06-29T00:14:43.298Z,22.87
2018-06-29T00:17:11.446Z,23.87
2018-06-29T00:19:39.598Z,24.17
2018-06-29T00:22:07.725Z,24.05
2018-06-29T00:24:35.881Z,24.52
2018-06-29T00:27:04.102Z,23.02
2018-06-29T00:29:32.229Z,24.50
2018-06-29T00:32:00.406Z,25.20
2018-06-29T00:34:28.550Z,25.27
2018-06-29T00:36:56.697Z,23.15
2018-06-29T00:39:24.865Z,25.70
2018-06-29T00:41:53.013Z,24.23
2018-06-29T00:44:21.149Z,24.65
2018-06-29T00:46:49.294Z,25.70
2018-06-29T00:49:17.442Z,25.60
2018-06-29T00:51:45.601Z,23.60
2018-06-29T00:54:13.761Z,23.55
2018-06-29T00:56:41.902Z,24.85
2018-06-29T00:59:10.096Z,24.23
2018-06-29T01:01:38.288Z,26.43
2018-06-29T01:04:06.512Z,24.80
2018-06-29T01:06:34.705Z,24.07
2018-06-29T01:09:02.935Z,26.30
2018-06-29T01:11:31.178Z,24.47
2018-06-29T01:13:59.378Z,24.67
2018-06-29T01:16:27.538Z,25.10
2018-06-29T01:18:55.721Z,24.17
2018-06-29T01:21:23.883Z,22.32
2018-06-29T01:23:52.071Z,24.55
2018-06-29T01:26:20.245Z,24.37
2018-06-29T01:28:48.427Z,24.82
2018-06-29T01:31:16.586Z,26.07
2018-06-29T01:33:44.766Z,25.53
2018-06-29T01:36:12.919Z,24.87
2018-06-29T01:38:41.102Z,24.60
2018-06-29T01:41:09.300Z,25.45
2018-06-29T01:43:37.477Z,25.37
2018-06-29T01:46:05.685Z,26.10
2018-06-29T01:48:33.842Z,26.15
2018-06-29T01:51:02.011Z,25.70
2018-06-29T01:53:30.191Z,25.88
2018-06-29T01:55:58.423Z,27.13
2018-06-29T01:58:26.618Z,24.70
2018-06-29T02:00:54.790Z,24.80
2018-06-29T02:03:22.953Z,24.40
2018-06-29T02:05:51.134Z,25.15
2018-06-29T02:08:19.311Z,23.70
2018-06-29T02:10:47.486Z,21.33
2018-06-29T02:13:15.706Z,23.00
2018-06-29T02:15:43.901Z,23.52
2018-06-29T02:18:12.096Z,25.45
2018-06-29T02:20:40.265Z,25.55
2018-06-29T02:23:08.442Z,24.50
2018-06-29T02:25:36.618Z,24.65
2018-06-29T02:28:05.508Z,23.30
2018-06-29T02:30:33.683Z,24.55
2018-06-29T02:33:01.858Z,24.47
2018-06-29T02:35:30.203Z,23.87
2018-06-29T02:37:58.378Z,24.60
2018-06-29T02:40:26.541Z,22.95
2018-06-29T02:42:54.741Z,25.40
2018-06-29T02:45:22.908Z,25.40
2018-06-29T02:47:51.082Z,24.05
2018-06-29T02:50:19.286Z,24.65
2018-06-29T02:52:47.473Z,24.77
2018-06-29T02:55:15.635Z,25.27
2018-06-29T02:57:43.810Z,24.65
2018-06-29T03:00:11.739Z,25.43
2018-06-29T03:02:39.887Z,24.87
2018-06-29T03:05:08.066Z,25.07
2018-06-29T03:07:36.211Z,24.80
2018-06-29T03:10:04.415Z,23.60
2018-06-29T03:12:32.585Z,24.27
2018-06-29T03:15:00.754Z,24.87
2018-06-29T03:17:28.942Z,26.10
2018-06-29T03:19:57.107Z,29.87
2018-06-29T03:22:25.261Z,29.92
2018-06-29T03:24:53.414Z,30.15
2018-06-29T03:27:21.576Z,32.88
2018-06-29T03:29:49.754Z,30.62
2018-06-29T03:32:17.903Z,31.97
2018-06-29T03:34:46.058Z,26.68
2018-06-29T03:37:14.211Z,28.07
2018-06-29T03:39:42.372Z,27.13
2018-06-29T03:42:10.306Z,25.55
2018-06-29T03:44:38.482Z,25.48
2018-06-29T03:47:06.639Z,25.60
2018-06-29T03:49:34.816Z,25.35
2018-06-29T03:52:02.970Z,28.12
2018-06-29T03:54:31.190Z,27.52
2018-06-29T03:56:59.362Z,27.77
2018-06-29T03:59:27.551Z,28.05
2018-06-29T04:01:55.702Z,28.20
2018-06-29T04:04:23.866Z,29.27
2018-06-29T04:06:52.062Z,30.08
2018-06-29T04:09:20.246Z,27.82
2018-06-29T04:11:48.468Z,27.52
2018-06-29T04:14:16.563Z,27.37
2018-06-29T04:16:44.713Z,26.82
2018-06-29T04:19:12.874Z,26.77
2018-06-29T04:21:41.034Z,27.50
2018-06-29T04:24:09.202Z,27.48
2018-06-29T04:26:37.381Z,30.50
2018-06-29T04:29:05.540Z,26.87
2018-06-29T04:31:33.714Z,29.73
2018-06-29T04:34:01.633Z,26.20
2018-06-29T04:36:29.803Z,27.95
2018-06-29T04:38:57.982Z,28.52
2018-06-29T04:41:26.126Z,26.93
2018-06-29T04:43:54.273Z,25.45
2018-06-29T04:46:22.421Z,25.10
2018-06-29T04:48:50.595Z,25.90
2018-06-29T04:51:18.766Z,27.30
2018-06-29T04:53:46.921Z,28.27
2018-06-29T04:56:15.083Z,27.22
2018-06-29T04:58:43.267Z,25.62
2018-06-29T05:01:11.455Z,25.87
2018-06-29T05:03:39.623Z,23.20
2018-06-29T05:06:07.788Z,23.00
2018-06-29T05:08:35.962Z,24.98
2018-06-29T05:11:04.154Z,26.33
2018-06-29T05:13:32.330Z,24.72
2018-06-29T05:16:00.717Z,25.85
2018-06-29T05:18:28.895Z,25.95
2018-06-29T05:20:57.057Z,24.60
2018-06-29T05:23:24.981Z,26.60
2018-06-29T05:25:53.166Z,27.32
2018-06-29T05:28:21.342Z,25.85
2018-06-29T05:30:49.536Z,24.18
2018-06-29T05:33:18.125Z,25.65
2018-06-29T05:35:46.334Z,27.07
2018-06-29T05:38:14.570Z,25.95
2018-06-29T05:40:42.704Z,21.48
2018-06-29T05:43:10.865Z,22.17
2018-06-29T05:45:39.038Z,22.90
2018-06-29T05:48:07.211Z,24.18
2018-06-29T05:50:35.395Z,21.82
2018-06-29T05:53:03.606Z,22.60
2018-06-29T05:55:31.770Z,23.40
2018-06-29T05:57:59.927Z,21.95
2018-06-29T06:00:28.103Z,19.80
2018-06-29T06:02:56.327Z,22.62
2018-06-29T06:05:24.494Z,20.95
2018-06-29T06:07:52.687Z,21.48
2018-06-29T06:10:20.887Z,20.55
2018-06-29T06:12:49.059Z,22.35
2018-06-29T06:15:17.221Z,21.62
2018-06-29T06:17:45.398Z,22.57
2018-06-29T06:20:15.059Z,23.43
2018-06-29T06:22:43.248Z,23.60
2018-06-29T06:25:11.503Z,24.20
2018-06-29T06:27:39.657Z,24.20
2018-06-29T06:30:07.943Z,25.80
2018-06-29T06:32:36.129Z,25.30
2018-06-29T06:35:04.418Z,27.90
2018-06-29T06:37:32.619Z,28.15
2018-06-29T06:40:00.810Z,26.68
2018-06-29T06:42:28.982Z,26.05
2018-06-29T06:44:57.149Z,26.55
2018-06-29T06:47:25.321Z,22.43
2018-06-29T06:49:53.485Z,24.70
2018-06-29T06:52:21.658Z,26.10
2018-06-29T06:54:49.841Z,25.95
2018-06-29T06:57:18.061Z,23.35
2018-06-29T06:59:46.246Z,24.40
2018-06-29T07:02:14.442Z,24.70
2018-06-29T07:04:42.623Z,23.60
2018-06-29T07:07:10.802Z,25.40
2018-06-29T07:09:38.972Z,22.82
2018-06-29T07:12:07.162Z,24.52
2018-06-29T07:14:35.350Z,25.60
2018-06-29T07:17:03.634Z,24.00
2018-06-29T07:19:31.798Z,24.82
2018-06-29T07:21:59.981Z,25.60
2018-06-29T07:24:28.214Z,23.93
2018-06-29T07:26:56.317Z,25.70
2018-06-29T07:29:24.514Z,25.85
2018-06-29T07:31:52.702Z,25.95
2018-06-29T07:34:20.870Z,25.27
2018-06-29T07:36:49.073Z,25.30
2018-06-29T07:39:17.238Z,24.87
2018-06-29T07:41:45.409Z,26.17
2018-06-29T07:44:13.570Z,22.77
2018-06-29T07:46:41.826Z,23.62
2018-06-29T07:49:09.964Z,23.95
2018-06-29T07:51:38.152Z,22.00
2018-06-29T07:54:06.334Z,23.32
2018-06-29T07:56:34.542Z,22.67
2018-06-29T07:59:02.724Z,20.50
2018-06-29T08:01:30.918Z,21.68
2018-06-29T08:03:59.127Z,21.50
2018-06-29T08:06:28.118Z,22.32
2018-06-29T08:08:56.302Z,22.20
2018-06-29T08:11:24.469Z,21.77
2018-06-29T08:13:52.729Z,22.47
2018-06-29T08:16:21.298Z,19.17
2018-06-29T08:18:49.476Z,20.70
2018-06-29T08:21:17.638Z,19.85
2018-06-29T08:23:45.838Z,18.50
2018-06-29T08:26:24.811Z,20.23
2018-06-29T08:28:53.034Z,20.00
2018-06-29T08:31:21.229Z,21.20
2018-06-29T08:33:49.402Z,20.00
2018-06-29T08:36:17.553Z,20.20
2018-06-29T08:38:46.072Z,19.00
2018-06-29T08:41:14.182Z,17.40
2018-06-29T08:43:42.354Z,16.30
2018-06-29T08:46:10.518Z,19.07
2018-06-29T08:48:38.682Z,17.47
2018-06-29T08:51:06.841Z,16.90
2018-06-29T08:53:34.994Z,17.50
2018-06-29T08:56:03.174Z,17.30
2018-06-29T08:58:31.321Z,18.50
2018-06-29T09:00:59.462Z,19.10
2018-06-29T09:05:55.071Z,23.83
2018-06-29T09:08:23.214Z,22.10
2018-06-29T09:42:48.331Z,16.05
2018-06-29T09:45:16.598Z,17.50
2018-06-29T09:47:44.848Z,12.23
2018-06-29T09:50:12.911Z,12.87
2018-06-29T09:52:41.074Z,13.13
2018-06-29T09:55:09.225Z,12.80
2018-06-29T09:57:37.370Z,13.70
2018-06-29T10:00:07.803Z,14.60
2018-06-29T10:02:39.277Z,15.13
2018-06-29T10:05:04.551Z,13.90
2018-06-29T10:07:32.742Z,14.23
2018-06-29T10:10:00.614Z,15.00
2018-06-29T10:12:28.782Z,13.85
2018-06-29T10:14:56.946Z,13.78
2018-06-29T10:17:25.090Z,13.60
2018-06-29T10:19:53.111Z,15.00
2018-06-29T10:22:21.331Z,14.40
2018-06-29T10:24:49.414Z,14.55
2018-06-29T10:27:17.553Z,15.30
2018-06-29T10:29:45.711Z,15.30
2018-06-29T10:32:13.866Z,14.83
2018-06-29T10:34:42.031Z,14.78
2018-06-29T10:37:10.174Z,15.00
2018-06-29T10:39:38.329Z,13.87
2018-06-29T10:42:06.474Z,14.05
2018-06-29T10:44:34.659Z,15.72
2018-06-29T10:47:02.817Z,14.68
2018-06-29T10:49:30.966Z,14.17
2018-06-29T10:51:59.105Z,13.95
2018-06-29T10:54:27.261Z,14.13
2018-06-29T10:56:55.405Z,15.38
2018-06-29T10:59:23.569Z,16.47
2018-06-29T11:01:51.723Z,17.25
2018-06-29T11:04:20.522Z,16.05
2018-06-29T11:06:48.662Z,15.50
2018-06-29T11:09:16.826Z,15.15
2018-06-29T11:11:44.969Z,13.45
2018-06-29T11:14:13.127Z,13.45
2018-06-29T11:16:41.278Z,13.20
2018-06-29T11:19:09.442Z,14.05
2018-06-29T11:21:38.391Z,11.90
2018-06-29T11:24:06.559Z,12.47
2018-06-29T11:26:34.719Z,12.73
2018-06-29T11:29:02.646Z,12.13
2018-06-29T11:31:30.799Z,10.93
2018-06-29T11:33:58.974Z,12.85
2018-06-29T11:36:27.134Z,11.90
2018-06-29T11:38:55.287Z,11.20
2018-06-29T11:41:23.426Z,11.38
2018-06-29T11:43:51.726Z,11.50
2018-06-29T11:46:19.654Z,12.00
2018-06-29T11:48:47.845Z,11.20
2018-06-29T11:51:16.027Z,12.90
2018-06-29T11:53:44.230Z,11.80
2018-06-29T11:56:12.395Z,12.65
2018-06-29T11:58:40.585Z,12.10
2018-06-29T12:01:08.749Z,11.35
2018-06-29T12:03:36.930Z,12.10
2018-06-29T12:06:05.117Z,11.63
2018-06-29T12:08:33.276Z,12.07
2018-06-29T12:11:01.458Z,12.33
2018-06-29T12:13:29.655Z,11.85
2018-06-29T12:15:57.849Z,11.00
2018-06-29T12:18:26.016Z,11.80
2018-06-29T12:20:54.191Z,12.00
2018-06-29T12:23:22.542Z,11.20
2018-06-29T12:25:50.646Z,11.43
2018-06-29T12:28:18.823Z,10.28
2018-06-29T12:30:47.002Z,11.22
2018-06-29T12:33:15.175Z,10.13
2018-06-29T12:35:43.362Z,10.70
2018-06-29T12:38:11.521Z,10.45
2018-06-29T12:40:39.690Z,10.30
2018-06-29T12:43:07.858Z,10.50
2018-06-29T12:45:36.050Z,11.10
2018-06-29T12:48:04.221Z,10.08
2018-06-29T12:50:32.394Z,11.78
2018-06-29T12:53:00.555Z,11.05
2018-06-29T12:55:28.743Z,10.78
2018-06-29T12:57:56.978Z,10.35
2018-06-29T13:00:25.103Z,10.47
2018-06-29T13:02:53.263Z,9.93
2018-06-29T13:05:21.505Z,10.60
2018-06-29T13:07:49.750Z,12.05
2018-06-29T13:10:17.919Z,13.00
2018-06-29T13:12:46.091Z,12.18
2018-06-29T13:15:14.274Z,11.43
2018-06-29T13:17:42.514Z,11.05
2018-06-29T13:20:10.669Z,10.65
2018-06-29T13:22:38.857Z,10.55
2018-06-29T13:25:07.065Z,10.25
2018-06-29T13:27:35.217Z,10.95
2018-06-29T13:30:03.391Z,9.90
2018-06-29T13:32:31.610Z,9.60
2018-06-29T13:34:59.794Z,9.05
2018-06-29T13:37:27.962Z,10.75
2018-06-29T13:39:56.109Z,10.78
2018-06-29T13:42:24.309Z,10.18
2018-06-29T13:44:52.463Z,12.10
2018-06-29T13:47:20.711Z,10.80
2018-06-29T13:49:48.874Z,10.98
2018-06-29T13:52:17.104Z,12.50
2018-06-29T13:54:45.268Z,11.20
2018-06-29T13:57:13.439Z,11.53
2018-06-29T13:59:41.609Z,11.10
2018-06-29T14:02:09.854Z,11.80
2018-06-29T14:04:38.043Z,11.48
2018-06-29T14:07:06.213Z,12.18
2018-06-29T14:09:34.394Z,11.60
2018-06-29T14:12:02.566Z,12.70
2018-06-29T14:14:30.731Z,11.40
2018-06-29T14:16:58.885Z,12.68
2018-06-29T14:19:27.083Z,12.90
2018-06-29T14:21:55.263Z,12.55
2018-06-29T14:24:23.434Z,12.70
2018-06-29T14:26:51.702Z,12.35
2018-06-29T14:29:19.891Z,11.25
2018-06-29T14:31:48.059Z,12.10
2018-06-29T14:34:16.222Z,10.80
2018-06-29T14:36:44.398Z,11.80
2018-06-29T14:39:12.587Z,11.38
2018-06-29T14:41:40.753Z,9.65
2018-06-29T14:44:09.423Z,10.00
2018-06-29T14:46:38.431Z,9.90
2018-06-29T14:49:06.603Z,9.50
2018-06-29T14:51:34.782Z,9.63
2018-06-29T14:54:02.947Z,9.03
2018-06-29T14:56:31.110Z,9.33
2018-06-29T14:58:59.299Z,9.30
2018-06-29T15:01:27.487Z,9.60
2018-06-29T15:03:55.633Z,9.13
2018-06-29T15:06:23.822Z,11.35
2018-06-29T15:08:52.090Z,9.15
2018-06-29T15:11:20.280Z,9.40
2018-06-29T15:13:48.442Z,9.70
2018-06-29T15:16:16.642Z,9.13
2018-06-29T15:18:44.809Z,9.20
2018-06-29T15:21:12.985Z,9.10
2018-06-29T15:23:41.175Z,8.73
2018-06-29T15:26:09.347Z,8.90
2018-06-29T15:28:37.527Z,8.43
2018-06-29T15:31:05.786Z,8.20
2018-06-29T15:33:33.926Z,8.43
2018-06-29T15:36:02.098Z,7.97
2018-06-29T15:38:30.282Z,8.80
2018-06-29T15:40:58.446Z,8.35
2018-06-29T15:43:26.629Z,8.13
2018-06-29T15:45:54.796Z,8.00
2018-06-29T15:48:23.002Z,7.12
2018-06-29T15:50:51.194Z,6.97
2018-06-29T15:53:19.395Z,7.00
2018-06-29T15:55:47.574Z,7.00
2018-06-29T15:58:15.803Z,7.33
2018-06-29T16:00:43.995Z,7.60
2018-06-29T16:03:12.207Z,7.53
2018-06-29T16:05:40.887Z,7.70
2018-06-29T16:08:09.080Z,7.70
2018-06-29T16:10:37.248Z,8.30
2018-06-29T16:13:05.537Z,7.67
2018-06-29T16:15:33.764Z,8.05
2018-06-29T16:18:01.887Z,7.07
2018-06-29T16:20:30.069Z,6.90
2018-06-29T16:22:58.241Z,7.00
2018-06-29T16:25:26.410Z,6.60
2018-06-29T16:27:54.573Z,6.90
2018-06-29T16:30:22.815Z,6.92
2018-06-29T16:32:50.987Z,6.90
2018-06-29T16:35:19.162Z,7.17
2018-06-29T16:37:47.334Z,6.50
2018-06-29T16:40:15.526Z,7.00
2018-06-29T16:42:43.694Z,6.87
2018-06-29T16:45:11.873Z,6.85
2018-06-29T16:47:40.073Z,6.92
2018-06-29T16:50:08.255Z,6.70
2018-06-29T16:52:36.681Z,6.90
2018-06-29T16:55:04.942Z,6.50
2018-06-29T16:57:33.112Z,6.28
2018-06-29T17:00:01.294Z,6.42
2018-06-29T17:02:29.207Z,5.67
2018-06-29T17:04:57.354Z,5.75
2018-06-29T17:07:25.501Z,5.65
2018-06-29T17:09:53.670Z,5.90
2018-06-29T17:12:21.846Z,5.90
2018-06-29T17:14:49.997Z,5.62
2018-06-29T17:17:18.157Z,6.40
2018-06-29T17:19:46.332Z,5.90
2018-06-29T17:22:14.474Z,5.75
2018-06-29T17:24:42.613Z,6.70
2018-06-29T17:27:10.790Z,5.77
2018-06-29T17:29:38.953Z,6.00
2018-06-29T17:32:07.125Z,6.28
2018-06-29T17:34:35.274Z,6.50
2018-06-29T17:37:03.416Z,6.17
2018-06-29T17:39:31.586Z,7.20
2018-06-29T17:41:59.721Z,6.42
2018-06-29T17:44:27.863Z,7.40
2018-06-29T17:46:56.031Z,6.47
2018-06-29T17:49:24.183Z,6.87
2018-06-29T17:51:52.322Z,6.73
2018-06-29T17:54:20.485Z,6.80
2018-06-29T17:56:48.622Z,7.08
2018-06-29T17:59:16.773Z,7.30
2018-06-29T18:01:45.182Z,7.33
2018-06-29T18:04:13.342Z,7.80
2018-06-29T18:06:41.495Z,7.55
2018-06-29T18:09:10.830Z,7.50
2018-06-29T18:11:38.974Z,7.60
2018-06-29T18:14:07.142Z,8.15
2018-06-29T18:16:35.355Z,7.90
2018-06-29T18:19:03.970Z,7.53
2018-06-29T18:21:32.103Z,8.30
2018-06-29T18:24:00.264Z,8.08
2018-06-29T18:26:28.418Z,8.15
2018-06-29T18:28:56.582Z,7.95
2018-06-29T18:31:24.775Z,7.30
2018-06-29T18:33:52.967Z,7.30
2018-06-29T18:36:21.138Z,7.57
2018-06-29T18:38:49.326Z,8.10
2018-06-29T18:41:17.257Z,7.80
2018-06-29T18:43:45.409Z,8.90
2018-06-29T18:46:13.559Z,8.35
2018-06-29T18:48:41.733Z,8.43
2018-06-29T18:51:09.874Z,7.92
2018-06-29T18:53:38.070Z,8.20
2018-06-29T18:56:06.261Z,8.88
2018-06-29T18:58:34.428Z,8.00
2018-06-29T19:01:02.631Z,8.40
2018-06-29T19:03:30.789Z,8.80
2018-06-29T19:05:58.975Z,8.25
2018-06-29T19:08:27.147Z,8.68
2018-06-29T19:10:55.331Z,8.60
2018-06-29T19:13:23.498Z,7.80
2018-06-29T19:15:51.674Z,8.03
2018-06-29T19:18:20.112Z,8.50
2018-06-29T19:20:48.282Z,8.35
2018-06-29T19:23:16.462Z,8.50
2018-06-29T19:25:44.683Z,8.48
2018-06-29T19:28:13.086Z,7.83
2018-06-29T19:30:41.292Z,7.87
2018-06-29T19:33:09.403Z,8.10
2018-06-29T19:35:37.570Z,8.60
2018-06-29T19:38:05.771Z,8.38
2018-06-29T19:40:33.941Z,8.30
2018-06-29T19:43:02.108Z,8.40
2018-06-29T19:45:30.275Z,8.30
2018-06-29T19:47:58.503Z,7.90
2018-06-29T19:50:26.739Z,8.98
2018-06-29T19:52:54.987Z,10.15
2018-06-29T19:55:23.119Z,8.60
2018-06-29T19:57:51.285Z,8.33
2018-06-29T20:00:19.443Z,8.70
2018-06-29T20:02:47.614Z,8.53
2018-06-29T20:05:15.869Z,9.50
2018-06-29T20:07:43.925Z,8.40
2018-06-29T20:10:12.087Z,9.20
2018-06-29T20:12:40.233Z,9.20
2018-06-29T20:15:09.037Z,9.10
2018-06-29T20:17:37.190Z,9.05
2018-06-29T20:20:06.642Z,8.60
2018-06-29T20:22:34.778Z,8.60
2018-06-29T20:25:02.958Z,9.10
2018-06-29T20:27:31.111Z,8.85
2018-06-29T20:29:59.274Z,9.80
2018-06-29T20:32:27.443Z,8.93
2018-06-29T20:34:55.600Z,9.50
2018-06-29T20:37:23.778Z,8.78
2018-06-29T20:39:51.939Z,9.15
2018-06-29T20:42:20.098Z,8.90
2018-06-29T20:44:48.246Z,9.40
2018-06-29T20:47:16.415Z,9.60
2018-06-29T20:49:44.606Z,8.90
2018-06-29T20:52:12.759Z,8.20
2018-06-29T20:54:40.905Z,8.60
2018-06-29T20:57:09.045Z,8.55
2018-06-29T20:59:37.246Z,10.15
2018-06-29T21:02:05.431Z,9.28
2018-06-29T21:04:33.610Z,9.80
2018-06-29T21:07:01.784Z,10.00
2018-06-29T21:09:29.946Z,10.38
2018-06-29T21:11:58.138Z,9.60
2018-06-29T21:14:26.318Z,9.18
2018-06-29T21:16:54.499Z,9.13
2018-06-29T21:19:22.686Z,10.23
2018-06-29T21:21:50.875Z,9.70
2018-06-29T21:24:19.046Z,9.75
2018-06-29T21:26:47.235Z,9.60
2018-06-29T21:29:15.407Z,10.55
2018-06-29T21:31:43.569Z,9.83
2018-06-29T21:34:11.753Z,10.90
2018-06-29T21:36:39.923Z,10.88
2018-06-29T21:39:09.227Z,11.60
2018-06-29T21:41:37.430Z,11.60
2018-06-29T21:44:05.949Z,10.80
2018-06-29T21:46:34.562Z,11.20
2018-06-29T21:49:02.930Z,12.00
2018-06-29T21:51:31.205Z,12.35
2018-06-29T21:53:59.395Z,12.70
2018-06-29T21:56:27.590Z,13.80
2018-06-29T21:58:56.339Z,15.43
2018-06-29T22:01:24.514Z,13.93
2018-06-29T22:03:52.687Z,13.25
2018-06-29T22:06:20.847Z,13.75
2018-06-29T22:08:49.002Z,12.70
2018-06-29T22:11:17.143Z,11.95
2018-06-29T22:13:45.310Z,12.58
2018-06-29T22:16:13.486Z,11.85
2018-06-29T22:18:41.637Z,13.05
2018-06-29T22:21:09.798Z,13.00
2018-06-29T22:23:37.951Z,13.35
2018-06-29T22:26:06.130Z,13.80
2018-06-29T22:28:34.356Z,14.15
2018-06-29T22:31:02.532Z,13.38
2018-06-29T22:33:30.710Z,13.50
2018-06-29T22:35:58.875Z,14.60
2018-06-29T22:38:27.084Z,14.33
2018-06-29T22:40:55.250Z,13.90
2018-06-29T22:43:23.406Z,13.93
2018-06-29T22:45:51.553Z,13.48
2018-06-29T22:48:19.727Z,15.43
2018-06-29T22:50:47.891Z,16.10
2018-06-29T22:53:16.058Z,14.28
2018-06-29T22:55:44.205Z,16.17
2018-06-29T22:58:12.402Z,15.08
2018-06-29T23:00:40.596Z,15.73
2018-06-29T23:03:10.541Z,17.95
2018-06-29T23:05:38.717Z,16.37
2018-06-29T23:08:07.949Z,15.20
2018-06-29T23:10:36.123Z,13.80
2018-06-29T23:13:04.299Z,13.70
2018-06-29T23:15:32.487Z,15.10
2018-06-29T23:18:00.677Z,14.90
2018-06-29T23:20:28.843Z,15.03
2018-06-29T23:22:57.018Z,15.03
2018-06-29T23:25:25.198Z,14.50
2018-06-29T23:27:53.466Z,14.10
2018-06-29T23:30:21.650Z,14.65
2018-06-29T23:32:49.839Z,14.55
2018-06-29T23:35:18.022Z,15.50
2018-06-29T23:37:46.212Z,15.20
2018-06-29T23:40:14.378Z,14.60
2018-06-29T23:42:42.558Z,15.08
2018-06-29T23:45:10.746Z,14.75
2018-06-29T23:47:38.927Z,17.67
2018-06-29T23:50:07.099Z,18.70
2018-06-29T23:52:35.283Z,17.27
2018-06-29T23:55:03.459Z,16.17
2018-06-29T23:57:31.651Z,16.73
2018-06-29T23:59:59.831Z,15.30
